Charlevoix, MI

6:08 AM EDT on May 27, 2017 (GMT -0400)
Charlevoix Municipal

Weather History for KCVX - March, 2013

Change the Weather History Date:

Monday, March 25, 2013

  Actual Average Record
Temperature  
Mean Temperature 32 °F -  
Max Temperature 34 °F 45 °F 64 °F (2007)
Min Temperature 30 °F 30 °F 10 °F (2014)
Degree Days  
Heating Degree Days 33    
Moisture  
Dew Point 27 °F    
Average Humidity 81    
Maximum Humidity 89    
Minimum Humidity 73    
Precipitation  
Precipitation 0.00 in - - ()
Sea Level Pressure  
Sea Level Pressure 29.91 in    
Wind  
Wind Speed 10 mph (North)    
Max Wind Speed 17 mph    
Max Gust Speed 23 mph    
Visibility 10 miles    
Events Snow    
Averages and records for this station are not official NWS values.
T = Trace of Precipitation, MM = Missing Value Source: NWS Daily Summary

Daily Weather History Graph

Daily Weather History Graph

Search for Another Location

Airport or City:

Trip Planner

Search our weather history database for the weather conditions in past years. The results will help you decide how hot, cold, wet, or windy it might be!

Date:

Astronomy

Mar. 25, 2013 Rise Set
Actual Time 7:34 AM EDT 8:00 PM EDT
Civil Twilight 7:04 AM EDT 8:30 PM EDT
Nautical Twilight 6:29 AM EDT 9:05 PM EDT
Astronomical Twilight 5:53 AM EDT 9:41 PM EDT
Moon 6:28 PM EDT (3/25) 6:21 AM EDT (3/25)
Length of Visible Light 13h 25m
Length of Day
12h 26m
Waxing Gibbous, 96% of the Moon is Illuminated
Mar 25
Waxing Gibbous
Mar 27
Full
Apr 3
Last Quarter
Apr 10
New
Apr 18
First Quarter

Hourly Weather History & Observations

Time (EDT) Temp. Windchill Dew Point Humidity Pressure Visibility Wind Dir Wind Speed Gust Speed Precip Events Conditions
12:15 AM 30.6 °F 21.8 °F 25.3 °F 81% 29.87 in 10.0 mi NNE 10.4 mph - N/A   Mostly Cloudy
12:34 AM 30.9 °F 22.8 °F 25.5 °F 80% 29.87 in 10.0 mi NNE 9.2 mph - N/A   Overcast
12:55 AM 31.5 °F 24.9 °F 25.3 °F 78% 29.87 in 10.0 mi NE 6.9 mph - N/A   Overcast
1:14 AM 31.6 °F 25.1 °F 24.4 °F 75% 29.87 in 10.0 mi NE 6.9 mph - N/A   Overcast
1:34 AM 31.8 °F 23.9 °F 23.9 °F 73% 29.87 in 10.0 mi NE 9.2 mph - N/A   Overcast
1:55 AM 31.6 °F 22.6 °F 24.4 °F 75% 29.87 in 10.0 mi NE 11.5 mph - N/A   Overcast
2:14 AM 31.8 °F 23.3 °F 24.6 °F 75% 29.87 in 10.0 mi NE 10.4 mph - N/A   Overcast
2:35 AM 32.0 °F 22.5 °F 25.2 °F 76% 29.87 in 10.0 mi NE 12.7 mph 17.3 mph N/A   Overcast
2:54 AM 32.0 °F 23.6 °F 25.3 °F 76% 29.87 in 10.0 mi NE 10.4 mph - N/A   Overcast
3:14 AM 32.0 °F 24.8 °F 25.2 °F 76% 29.87 in 10.0 mi NE 8.1 mph 17.3 mph N/A   Overcast
3:34 AM 32.0 °F 23.6 °F 25.3 °F 76% 29.87 in 10.0 mi NE 10.4 mph - N/A   Overcast
3:54 AM 32.0 °F 23.0 °F 25.3 °F 76% 29.87 in 10.0 mi NE 11.5 mph - N/A   Overcast
4:14 AM 32.0 °F 23.6 °F 25.5 °F 77% 29.87 in 10.0 mi NE 10.4 mph - N/A   Overcast
4:34 AM 31.6 °F 23.7 °F 25.3 °F 78% 29.86 in 10.0 mi NNE 9.2 mph - N/A   Overcast
4:55 AM 31.5 °F 23.5 °F 25.0 °F 77% 29.86 in 10.0 mi NE 9.2 mph - N/A   Overcast
5:14 AM 31.1 °F 23.1 °F 24.6 °F 77% 29.86 in 10.0 mi NE 9.2 mph - N/A   Mostly Cloudy
5:35 AM 31.1 °F 23.1 °F 24.8 °F 77% 29.86 in 10.0 mi NE 9.2 mph - N/A   Overcast
5:54 AM 31.1 °F 22.4 °F 24.8 °F 77% 29.86 in 10.0 mi NE 10.4 mph 16.1 mph N/A   Overcast
6:14 AM 31.1 °F 24.5 °F 25.2 °F 79% 29.86 in 10.0 mi NNE 6.9 mph - N/A   Overcast
6:35 AM 30.9 °F 24.3 °F 25.3 °F 80% 29.86 in 10.0 mi NNE 6.9 mph - N/A   Overcast
6:54 AM 30.9 °F 22.8 °F 24.8 °F 78% 29.86 in 10.0 mi NE 9.2 mph - N/A   Overcast
7:14 AM 30.7 °F 21.4 °F 24.8 °F 79% 29.86 in 10.0 mi NNE 11.5 mph - N/A   Overcast
7:34 AM 30.7 °F 22.6 °F 24.8 °F 79% 29.86 in 10.0 mi NNE 9.2 mph 16.1 mph N/A   Overcast
7:54 AM 30.6 °F 21.8 °F 24.8 °F 79% 29.86 in 10.0 mi NNE 10.4 mph - N/A   Overcast
8:14 AM 30.2 °F 21.3 °F 24.8 °F 80% 29.87 in 10.0 mi NNE 10.4 mph - N/A   Overcast
8:34 AM 30.2 °F 20.2 °F 24.8 °F 80% 29.87 in 10.0 mi NNE 12.7 mph 17.3 mph N/A   Overcast
8:55 AM 30.2 °F 20.8 °F 24.8 °F 80% 29.87 in 10.0 mi NNE 11.5 mph - N/A   Overcast
9:14 AM 30.2 °F 20.8 °F 25.0 °F 81% 29.88 in 10.0 mi NNE 11.5 mph 17.3 mph N/A   Overcast
9:34 AM 30.6 °F 20.7 °F 25.5 °F 82% 29.88 in 10.0 mi NNE 12.7 mph 17.3 mph N/A   Overcast
9:55 AM 30.7 °F 20.9 °F 25.7 °F 82% 29.88 in 10.0 mi NNE 12.7 mph - N/A   Overcast
10:14 AM 30.6 °F 20.2 °F 25.5 °F 82% 29.88 in 10.0 mi NNE 13.8 mph - N/A   Overcast
10:34 AM 31.1 °F 20.9 °F 26.1 °F 82% 29.88 in 10.0 mi NNE 13.8 mph 18.4 mph N/A   Overcast
10:55 AM 30.9 °F 20.2 °F 25.7 °F 81% 29.89 in 10.0 mi North 15.0 mph 20.7 mph N/A   Mostly Cloudy
11:14 AM 30.9 °F 19.8 °F 25.7 °F 81% 29.89 in 10.0 mi North 16.1 mph 19.6 mph N/A   Overcast
11:34 AM 31.1 °F 20.5 °F 26.4 °F 83% 29.90 in 4.0 mi North 15.0 mph 19.6 mph N/A Snow Light Snow
11:55 AM 32.0 °F 22.5 °F 26.6 °F 80% 29.90 in 7.0 mi North 12.7 mph - N/A Snow Light Snow
12:14 PM 32.2 °F 21.4 °F 27.0 °F 81% 29.90 in 10.0 mi North 16.1 mph 19.6 mph N/A   Overcast
12:35 PM 32.5 °F 21.9 °F 26.6 °F 79% 29.90 in 10.0 mi North 16.1 mph 23.0 mph N/A   Overcast
12:55 PM 32.5 °F 21.5 °F 26.6 °F 79% 29.90 in 10.0 mi North 17.3 mph - N/A   Overcast
1:14 PM 32.5 °F 22.3 °F 26.8 °F 79% 29.90 in 10.0 mi North 15.0 mph 21.9 mph N/A   Overcast
1:35 PM 32.7 °F 22.5 °F 27.0 °F 79% 29.90 in 10.0 mi North 15.0 mph 19.6 mph N/A   Overcast
1:55 PM 33.1 °F 23.0 °F 27.0 °F 78% 29.90 in 10.0 mi North 15.0 mph 21.9 mph N/A   Overcast
2:14 PM 32.9 °F 23.2 °F 27.1 °F 79% 29.91 in 10.0 mi North 13.8 mph - N/A   Overcast
2:35 PM 33.4 °F 25.4 °F 28.0 °F 81% 29.91 in 10.0 mi North 10.4 mph 18.4 mph N/A   Overcast
2:54 PM 33.4 °F 26.6 °F 27.7 °F 79% 29.91 in 10.0 mi North 8.1 mph 17.3 mph N/A   Overcast
3:14 PM 33.6 °F 24.6 °F 28.2 °F 81% 29.90 in 10.0 mi North 12.7 mph 17.3 mph N/A   Overcast
3:34 PM 34.2 °F 26.8 °F 28.4 °F 79% 29.90 in 10.0 mi North 9.2 mph 16.1 mph N/A   Mostly Cloudy
3:54 PM 34.2 °F 26.8 °F 28.2 °F 79% 29.91 in 10.0 mi North 9.2 mph - N/A   Mostly Cloudy
4:15 PM 34.2 °F 27.5 °F 27.9 °F 78% 29.91 in 10.0 mi North 8.1 mph - N/A   Overcast
4:34 PM 34.3 °F 27.0 °F 28.0 °F 78% 29.91 in 10.0 mi North 9.2 mph - N/A   Overcast
4:54 PM 34.9 °F 29.0 °F 28.8 °F 78% 29.91 in 10.0 mi NNW 6.9 mph - N/A   Overcast
5:15 PM 34.7 °F 28.1 °F 28.8 °F 79% 29.92 in 10.0 mi NNW 8.1 mph - N/A   Overcast
5:34 PM 34.7 °F 29.6 °F 29.1 °F 80% 29.92 in 10.0 mi NNW 5.8 mph - N/A   Overcast
5:54 PM 34.7 °F 27.5 °F 29.3 °F 81% 29.93 in 10.0 mi NNW 9.2 mph - N/A   Overcast
6:15 PM 34.7 °F 26.9 °F 29.3 °F 81% 29.93 in 10.0 mi North 10.4 mph - N/A   Overcast
6:34 PM 34.3 °F 26.5 °F 30.2 °F 85% 29.93 in 10.0 mi North 10.4 mph - N/A   Overcast
6:55 PM 34.2 °F 26.2 °F 30.2 °F 85% 29.94 in 10.0 mi North 10.4 mph - N/A   Overcast
7:15 PM 34.2 °F 25.7 °F 30.2 °F 85% 29.95 in 10.0 mi North 11.5 mph - N/A   Overcast
7:34 PM 34.0 °F 25.0 °F 29.8 °F 85% 29.96 in 10.0 mi North 12.7 mph 17.3 mph N/A   Overcast
7:55 PM 33.8 °F 25.3 °F 29.8 °F 85% 29.97 in 10.0 mi North 11.5 mph - N/A   Overcast
8:15 PM 33.8 °F 26.4 °F 30.0 °F 86% 29.97 in 10.0 mi North 9.2 mph 16.1 mph N/A   Overcast
8:34 PM 33.8 °F 25.3 °F 30.0 °F 86% 29.98 in 10.0 mi NNW 11.5 mph 17.3 mph N/A   Overcast
8:55 PM 33.8 °F 25.3 °F 30.0 °F 86% 29.99 in 10.0 mi NNW 11.5 mph - N/A   Overcast
9:14 PM 33.6 °F 25.0 °F 30.2 °F 87% 30.00 in 10.0 mi NNW 11.5 mph 16.1 mph N/A   Overcast
9:35 PM 33.4 °F 25.4 °F 30.0 °F 87% 30.00 in 10.0 mi NNW 10.4 mph 17.3 mph N/A   Overcast
9:54 PM 33.4 °F 24.8 °F 29.8 °F 87% 30.00 in 10.0 mi NNW 11.5 mph 17.3 mph N/A   Overcast
10:14 PM 33.4 °F 25.4 °F 29.7 °F 86% 30.01 in 10.0 mi NNW 10.4 mph - N/A   Overcast
10:35 PM 33.3 °F 25.1 °F 29.7 °F 87% 30.01 in 10.0 mi North 10.4 mph - N/A   Overcast
10:54 PM 33.3 °F 25.7 °F 29.5 °F 86% 30.01 in 10.0 mi NNW 9.2 mph - N/A   Overcast
11:15 PM 33.1 °F 26.9 °F 29.7 °F 87% 30.02 in 10.0 mi NNW 6.9 mph - N/A   Overcast
11:34 PM 33.1 °F 28.7 °F 30.0 °F 89% 30.02 in 10.0 mi NW 4.6 mph - N/A   Overcast
11:54 PM 33.1 °F 30.0 °F 30.2 °F 89% 30.02 in 10.0 mi NNW 3.5 mph - N/A   Overcast